Rotonda West, Florida
Current Conditions -  °F | °C
As of 2:35 PM on Wednesday 17 Dec 2014 (Local Time) from KVNC Reporting Station
Haze Haze  
Wind Chill: 72°   Ceiling: Unl
Heat Index: 72°   Visibility: 5mi
Dew Point: 63°   Wind: 5mph
Humidity: 73%   Direction: 280°W
Pressure: 30.12"   Gusts: NA
Location:  26.9°N, 82.28°W
Report Text: KVNC 171935Z AUTO 28004KT 5SM HZ CLR 22/17 A3012 RMK AO2 TSNO
Loading
Personal Weather Stations






























Interactive Weather Map New forecast layout! Learn more

10-Day Weather Forecast

Advertisements
Track Severe Weather on mobile